ADDS METAR Data INFO
IDs: Format: Raw Decoded Include TAF

Data at: 0842 UTC 27 Jun 2017

KAQO 270810Z AUTO 00000KT 10SM BKN120 23/22 A3007 RMK AO2
KAQO 270750Z AUTO 00000KT 10SM BKN120 23/22 A3007 RMK AO2
KAQO 270730Z AUTO 00000KT 10SM FEW016 SCT120 23/22 A3008 RMK AO2
KAQO 270710Z AUTO 00000KT 10SM FEW016 23/22 A3008 RMK AO2
KAQO 270650Z AUTO 00000KT 10SM FEW110 23/22 A3010 RMK AO2
KAQO 270630Z AUTO 00000KT 10SM BKN110 23/22 A3010 RMK AO2
KAQO 270610Z AUTO 01003KT 10SM BKN110 23/22 A3009 RMK AO2
KAQO 270550Z AUTO 27003KT 10SM SCT120 23/22 A3008 RMK AO2
KAQO 270530Z AUTO 00000KT 10SM FEW042 23/22 A3009 RMK AO2
KAQO 270510Z AUTO 23004KT 10SM FEW040 23/22 A3009 RMK AO2
KAQO 270450Z AUTO 19004KT 10SM CLR 23/22 A3010 RMK AO2
KAQO 270430Z AUTO 00000KT 10SM FEW002 23/22 A3011 RMK AO2
KAQO 270410Z AUTO 16007G15KT 7SM SCT002 23/22 A3009 RMK AO2
KAQO 270350Z AUTO 17009G14KT 9SM FEW080 23/22 A3007 RMK AO2
KAQO 270330Z AUTO 15004KT 10SM VCTS SCT080 23/22 A3007 RMK AO2 LTG DSNT SE-SW
KAQO 270310Z AUTO 00000KT 9SM FEW002 23/23 A3009 RMK AO2 LTG DSNT ALQDS
KAQO 270250Z AUTO 00000KT 10SM VCTS -RA SCT001 BKN041 BKN070 23/22 A3007 RMK AO2 LTG DSNT NE AND E AND SW P0001
KAQO 270230Z AUTO 35006KT 5SM -RA SCT001 BKN026 OVC060 23/22 A3008 RMK AO2 LTG DSNT E AND SW
KAQO 270210Z AUTO 34006KT 10SM VCTS -RA FEW001 SCT040 BKN050 23/22 A3009 RMK AO2 LTG DSNT SW
KAQO 270150Z AUTO 30007KT 7SM -RA SCT002 BKN043 OVC049 24/23 A3007 RMK AO2 LTG DSNT SW P0001
KAQO 270130Z AUTO 00000KT 7SM VCTS -RA BKN002 BKN021 OVC046 25/22 A3006 RMK AO2 LTG DSNT SW AND NW
KAQO 270110Z AUTO 00000KT 5SM -RA BKN002 BKN017 BKN038 25/22 A3006 RMK AO2 LTG DSNT SW
KAQO 270050Z AUTO 00000KT 10SM VCTS SCT095 28/21 A3005 RMK AO2 LTG DSNT SW-N
KAQO 270030Z AUTO 00000KT 10SM SCT095 28/21 A3005 RMK AO2 LTG DSNT SW AND NW
KAQO 270010Z AUTO 10006KT 10SM CLR 29/21 A3004 RMK AO2 LTG DSNT SW AND NW
KAQO 262350Z AUTO 12010KT 10SM CLR 29/21 A3002 RMK AO2 LTG DSNT SW AND NW
KAQO 262330Z AUTO 10007KT 10SM CLR 29/19 A3002 RMK AO2 LTG DSNT SW-N
KAQO 262310Z AUTO 11006KT 10SM CLR 30/20 A3003 RMK AO2 LTG DSNT SW-NW
KAQO 262250Z AUTO 10008G15KT 10SM CLR 31/21 A3004 RMK AO2
KAQO 262230Z AUTO 11010G15KT 10SM CLR 32/21 A3004 RMK AO2
KAQO 262210Z AUTO 10008G16KT 10SM CLR 32/21 A3004 RMK AO2
KAQO 262150Z AUTO 11009KT 10SM CLR 33/21 A3004 RMK AO2
KAQO 262130Z AUTO 10008KT 10SM CLR 32/21 A3005 RMK AO2
KAQO 262110Z AUTO 08006KT 10SM CLR 33/21 A3005 RMK AO2
KAQO 262050Z AUTO 09003KT 10SM CLR 33/19 A3005 RMK AO2
KAQO 262030Z AUTO 10007KT 10SM FEW045 SCT060 SCT085 31/20 A3006 RMK AO2
KAQO 262010Z AUTO 12006KT 10SM SCT047 32/21 A3007 RMK AO2
KAQO 261950Z AUTO 00000KT 10SM CLR 32/19 A3008 RMK AO2
KAQO 261930Z AUTO 07008KT 10SM FEW041 SCT090 32/21 A3009 RMK AO2
KAQO 261910Z AUTO 15004KT 10SM FEW040 SCT060 SCT090 32/19 A3010 RMK AO2
KAQO 261850Z AUTO 17004KT 10SM FEW060 31/21 A3011 RMK AO2
KAQO 261830Z AUTO 00000KT 10SM CLR 31/21 A3013 RMK AO2
KAQO 261810Z AUTO 00000KT 10SM FEW090 29/20 A3013 RMK AO2
KAQO 261750Z AUTO 00000KT 10SM SCT033 BKN090 29/20 A3014 RMK AO2
KAQO 261730Z AUTO 00000KT 10SM BKN032 29/21 A3015 RMK AO2
KAQO 261710Z AUTO 06003KT 10SM FEW026 SCT037 SCT085 29/21 A3015 RMK AO2
KAQO 261650Z AUTO 05003KT 10SM FEW026 SCT037 28/22 A3016 RMK AO2
KAQO 261630Z AUTO 00000KT 8SM FEW023 28/22 A3017 RMK AO2
KAQO 261610Z AUTO 00000KT 10SM SCT023 SCT075 28/22 A3017 RMK AO2
KAQO 261550Z AUTO 00000KT 10SM FEW075 27/22 A3018 RMK AO2
KAQO 261530Z AUTO 00000KT 10SM FEW016 FEW060 BKN075 26/22 A3018 RMK AO2
KAQO 261510Z AUTO 00000KT 10SM SCT016 BKN075 27/22 A3019 RMK AO2
KAQO 261450Z AUTO 00000KT 10SM SCT014 BKN039 BKN075 26/22 A3019 RMK AO2
KAQO 261430Z AUTO 00000KT 10SM SCT039 BKN075 25/22 A3020 RMK AO2
KAQO 261410Z AUTO 00000KT 10SM FEW008 SCT018 OVC075 24/22 A3020 RMK AO2
KAQO 261350Z AUTO 00000KT 10SM BKN008 BKN012 OVC039 24/22 A3020 RMK AO2
KAQO 261330Z AUTO 00000KT 10SM BKN008 24/22 A3020 RMK AO2
KAQO 261310Z AUTO 12005KT 10SM SCT008 24/22 A3019 RMK AO2
KAQO 261250Z AUTO 00000KT 10SM CLR 24/22 A3018 RMK AO2
KAQO 261230Z AUTO 00000KT 10SM CLR 23/22 A3017 RMK AO2
KAQO 261210Z AUTO 00000KT 10SM CLR 22/22 A3016 RMK AO2
KAQO 261150Z AUTO 00000KT 10SM FEW015 22/21 A3016 RMK AO2
KAQO 261130Z AUTO 00000KT 10SM FEW015 22/21 A3016 RMK AO2
KAQO 261110Z AUTO 00000KT 10SM CLR 22/21 A3016 RMK AO2
KAQO 261050Z AUTO 00000KT 10SM FEW026 22/21 A3016 RMK AO2
KAQO 261030Z AUTO 00000KT 10SM SCT017 BKN026 23/21 A3016 RMK AO2
KAQO 261010Z AUTO 00000KT 10SM SCT019 22/21 A3016 RMK AO2
KAQO 260950Z AUTO 00000KT 10SM CLR 22/21 A3016 RMK AO2
KAQO 260930Z AUTO 00000KT 10SM CLR 22/22 A3015 RMK AO2
KAQO 260910Z AUTO 00000KT 10SM CLR 23/22 A3016 RMK AO2
KAQO 260850Z AUTO 00000KT 10SM CLR 23/22 A3016 RMK AO2
KAQO 260830Z AUTO 00000KT 10SM CLR 23/22 A3017 RMK AO2
KAQO 260810Z AUTO 00000KT 10SM FEW050 SCT085 23/22 A3017 RMK AO2
KAQO 260750Z AUTO 00000KT 10SM FEW050 FEW085 23/22 A3018 RMK AO2
KAQO 260730Z AUTO 00000KT 10SM FEW043 SCT060 24/22 A3018 RMK AO2
KAQO 260710Z AUTO 00000KT 10SM FEW027 BKN041 BKN060 24/22 A3018 RMK AO2
KAQO 260650Z AUTO 00000KT 10SM SCT025 SCT037 23/22 A3018 RMK AO2
KAQO 260630Z AUTO 00000KT 10SM FEW035 23/22 A3017 RMK AO2
KAQO 260610Z AUTO 00000KT 10SM CLR 24/22 A3017 RMK AO2
KAQO 260550Z AUTO 00000KT 10SM CLR 24/22 A3017 RMK AO2
KAQO 260530Z AUTO 00000KT 10SM CLR 24/22 A3017 RMK AO2
KAQO 260510Z AUTO 00000KT 10SM FEW041 FEW048 SCT065 24/22 A3018 RMK AO2
KAQO 260450Z AUTO 00000KT 10SM FEW041 SCT048 BKN065 25/22 A3018 RMK AO2
KAQO 260430Z AUTO 00000KT 10SM FEW055 SCT065 25/22 A3018 RMK AO2
KAQO 260410Z AUTO 00000KT 10SM BKN050 25/22 A3018 RMK AO2
KAQO 260350Z AUTO 08003KT 10SM SCT050 25/22 A3017 RMK AO2
KAQO 260330Z AUTO 07006KT 10SM FEW034 25/21 A3017 RMK AO2
KAQO 260310Z AUTO 08004KT 10SM CLR 25/21 A3016 RMK AO2
KAQO 260250Z AUTO 07006KT 10SM CLR 26/21 A3015 RMK AO2
KAQO 260230Z AUTO 08006KT 10SM CLR 26/21 A3014 RMK AO2
KAQO 260210Z AUTO 08005KT 10SM CLR 26/21 A3014 RMK AO2
KAQO 260150Z AUTO 07006KT 10SM CLR 27/21 A3014 RMK AO2
KAQO 260130Z AUTO 07006KT 10SM CLR 27/21 A3013 RMK AO2
KAQO 260110Z AUTO 09006KT 10SM CLR 28/21 A3013 RMK AO2
KAQO 260050Z AUTO 10006KT 10SM CLR 29/22 A3012 RMK AO2
KAQO 260030Z AUTO 10010G14KT 010V020 10SM CLR 29/22 A3012 RMK AO2
KAQO 260010Z AUTO 11009KT 10SM CLR 29/21 A3012 RMK AO2
KAQO 252350Z AUTO 11007KT 10SM CLR 30/21 A3012 RMK AO2
KAQO 252330Z AUTO 11009G14KT 10SM CLR 31/21 A3013 RMK AO2
KAQO 252310Z AUTO 10010KT 10SM FEW039 FEW050 31/21 A3013 RMK AO2
KAQO 252250Z AUTO 10008KT 10SM SCT041 SCT046 BKN050 30/21 A3013 RMK AO2
KAQO 252230Z AUTO 08009KT 010V020 10SM SCT041 32/21 A3013 RMK AO2
KAQO 252210Z AUTO 05011KT 10SM SCT041 32/21 A3013 RMK AO2
KAQO 252150Z AUTO 08010KT 010V020 10SM SCT039 32/22 A3015 RMK AO2
KAQO 252130Z AUTO 07010KT 10SM FEW044 SCT070 32/21 A3016 RMK AO2
KAQO 252110Z AUTO 08006KT 10SM SCT038 SCT048 BKN060 30/21 A3016 RMK AO2
KAQO 252050Z AUTO 04006KT 10SM FEW040 SCT049 31/21 A3017 RMK AO2


Page loaded:  08:42 UTC  |   01:42 AM Pacific  |   02:42 AM Mountain  |   03:42 AM Central  |   04:42 AM Eastern

 

ADVISORIES

FORECASTS

FORECASTS

OBSERVATIONS

USER TOOLS

ABOUT US